Time;durP1;ratioP1;P1;durP2;ratioP2;P2;SDS_P1;SDS_P2;PMS_P1;PMS_P2;Temp;Humidity;BMP_temperature;BMP_pressure;BME280_temperature;BME280_humidity;BME280_pressure;Samples;Min_cycle;Max_cycle;Signal;HPM_P1;HPM_P2
2021/06/22 00:00:19;;;;;;;2.72;2.53;;;17.90;99.90;;;-141.85;100.00;63675.41;5114561;28;20721;-61
2021/06/22 00:02:48;;;;;;;2.72;2.50;;;17.80;99.90;;;-141.85;100.00;63675.41;5114841;28;20288;-62
2021/06/22 00:05:18;;;;;;;3.30;2.88;;;17.80;99.90;;;-141.85;100.00;63675.41;5114631;28;20234;-62
2021/06/22 00:07:48;;;;;;;2.95;2.75;;;17.80;99.90;;;-141.85;100.00;63675.41;5114750;28;20251;-61
2021/06/22 00:10:18;;;;;;;2.80;2.60;;;17.70;99.90;;;-141.85;100.00;63675.41;5114518;28;20217;-61
2021/06/22 00:12:47;;;;;;;3.17;2.88;;;17.70;99.90;;;-141.85;100.00;63675.41;5114763;28;20296;-62
2021/06/22 00:15:21;;;;;;;3.30;3.00;;;17.70;99.90;;;-141.85;100.00;63675.41;5114286;28;20221;-61
2021/06/22 00:17:50;;;;;;;3.60;3.10;;;17.60;99.90;;;-141.85;100.00;63675.41;5114614;28;20190;-62
2021/06/22 00:20:21;;;;;;;4.05;3.42;;;17.70;99.90;;;-141.85;100.00;63675.41;5114059;28;20308;-61
2021/06/22 00:22:51;;;;;;;4.45;3.45;;;17.80;99.90;;;-141.85;100.00;63675.41;5114483;28;20289;-62
2021/06/22 00:25:21;;;;;;;4.00;3.70;;;17.80;99.90;;;-141.85;100.00;63675.41;5113856;28;20240;-62
2021/06/22 00:27:52;;;;;;;4.75;3.72;;;17.80;99.90;;;-141.85;100.00;63675.41;5114452;28;20202;-62
2021/06/22 00:30:23;;;;;;;4.53;3.95;;;17.70;99.90;;;-141.85;100.00;63675.41;5114191;28;20834;-61
2021/06/22 00:32:52;;;;;;;4.25;3.85;;;17.70;99.90;;;-141.85;100.00;63675.41;5114040;28;20735;-62
2021/06/22 00:35:21;;;;;;;4.15;3.72;;;17.70;99.90;;;-141.85;100.00;63675.41;5114210;28;20223;-61
2021/06/22 00:37:50;;;;;;;5.70;4.15;;;17.70;99.90;;;-141.85;100.00;63675.41;5113190;28;20205;-62
2021/06/22 00:40:18;;;;;;;5.15;4.65;;;17.70;99.90;;;-141.85;100.00;63675.41;5113994;28;20639;-61
2021/06/22 00:42:48;;;;;;;5.20;4.70;;;17.70;99.90;;;-141.85;100.00;63675.41;5113773;28;20240;-62
2021/06/22 00:45:28;;;;;;;5.45;4.90;;;17.70;99.90;;;-141.85;100.00;63675.41;5113899;28;20309;-61
2021/06/22 00:47:57;;;;;;;5.45;4.88;;;17.70;99.90;;;-141.85;100.00;63675.41;5113760;28;20191;-62
2021/06/22 00:50:27;;;;;;;5.90;5.30;;;17.70;99.90;;;-141.85;100.00;63675.41;5113840;28;20282;-62
2021/06/22 00:52:56;;;;;;;6.72;4.97;;;17.80;99.90;;;-141.85;100.00;63675.41;5113360;28;20219;-61
2021/06/22 00:55:30;;;;;;;6.75;5.47;;;17.90;99.90;;;-141.85;100.00;63675.41;5113333;28;20286;-62
2021/06/22 00:58:18;;;;;;;7.40;5.70;;;17.90;99.90;;;-141.85;100.00;63675.41;5113667;28;20195;-61
2021/06/22 01:00:48;;;;;;;6.72;5.95;;;17.90;99.90;;;-141.85;100.00;63675.41;5113560;28;20203;-61
2021/06/22 01:03:16;;;;;;;6.80;5.80;;;17.90;99.90;;;-141.85;100.00;63675.41;5113635;28;20294;-62
2021/06/22 01:05:44;;;;;;;6.88;6.18;;;17.90;99.90;;;-141.85;100.00;63675.41;5113437;28;20345;-62
2021/06/22 01:08:13;;;;;;;6.40;5.80;;;17.90;99.90;;;-141.85;100.00;63675.41;5113002;28;20231;-62
2021/06/22 01:10:42;;;;;;;5.93;4.88;;;17.80;99.90;;;-141.85;100.00;63675.41;5113278;28;20290;-62
2021/06/22 01:13:10;;;;;;;6.57;5.72;;;17.80;99.90;;;-141.85;100.00;63675.41;5113343;28;20290;-61
2021/06/22 01:15:38;;;;;;;7.22;6.18;;;17.80;99.90;;;-141.85;100.00;63675.41;5113377;28;20192;-62
2021/06/22 01:18:08;;;;;;;6.63;5.93;;;17.80;99.90;;;-141.85;100.00;63675.41;5113314;28;20207;-62
2021/06/22 01:20:37;;;;;;;6.15;5.45;;;17.80;99.90;;;-141.85;100.00;63675.41;5113263;28;20209;-62
2021/06/22 01:23:08;;;;;;;6.05;5.45;;;17.80;99.90;;;-141.85;100.00;63675.41;5112904;28;20294;-62
2021/06/22 01:25:38;;;;;;;5.20;4.63;;;17.80;99.90;;;-141.85;100.00;63675.41;5113140;28;20219;-61
2021/06/22 01:28:07;;;;;;;5.35;4.82;;;17.70;99.90;;;-141.85;100.00;63675.41;5113171;28;20392;-62
2021/06/22 01:30:35;;;;;;;7.82;4.78;;;17.80;99.90;;;-141.85;100.00;63675.41;5112505;28;20202;-61
2021/06/22 01:33:06;;;;;;;4.50;4.10;;;17.80;99.90;;;-141.85;100.00;63675.41;5113002;28;20199;-62
2021/06/22 01:35:34;;;;;;;5.45;3.67;;;17.80;99.90;;;-141.85;100.00;63675.41;5112992;28;20563;-62
2021/06/22 01:38:08;;;;;;;3.40;3.10;;;17.70;99.90;;;-141.85;100.00;63675.41;5112852;28;20274;-61
2021/06/22 01:40:44;;;;;;;2.50;2.30;;;17.70;99.90;;;-141.85;100.00;63675.41;5112888;28;20294;-62
2021/06/22 01:43:12;;;;;;;2.50;2.30;;;17.70;99.90;;;-141.85;100.00;63675.41;5112921;28;20179;-62
2021/06/22 01:45:40;;;;;;;2.03;1.83;;;17.70;99.90;;;-141.85;100.00;63675.41;5112731;28;20311;-61
2021/06/22 01:48:08;;;;;;;2.30;2.10;;;17.70;99.90;;;-141.85;100.00;63675.41;5111886;28;20322;-62
2021/06/22 01:50:37;;;;;;;2.33;1.70;;;17.70;99.90;;;-141.85;100.00;63675.41;5112788;28;20225;-61
2021/06/22 01:53:06;;;;;;;2.00;1.80;;;17.70;99.90;;;-141.85;100.00;63675.41;5112204;28;20697;-62
2021/06/22 01:55:38;;;;;;;2.38;2.05;;;17.70;99.90;;;-141.85;100.00;63675.41;5112724;28;20684;-62
2021/06/22 01:58:09;;;;;;;2.67;2.47;;;17.70;99.90;;;-141.85;100.00;63675.41;5112614;28;20183;-61
2021/06/22 02:00:38;;;;;;;2.70;2.08;;;17.60;99.90;;;-141.85;100.00;63675.41;5112748;28;20203;-62
2021/06/22 02:03:08;;;;;;;2.35;2.15;;;17.60;99.90;;;-141.85;100.00;63675.41;5112372;28;20199;-61
2021/06/22 02:05:36;;;;;;;2.97;2.78;;;17.70;99.90;;;-141.85;100.00;63675.41;5112288;28;20761;-61
2021/06/22 02:08:05;;;;;;;4.32;2.92;;;17.70;99.90;;;-141.85;100.00;63675.41;5112475;28;20204;-62
2021/06/22 02:10:33;;;;;;;7.40;3.10;;;17.70;99.90;;;-141.85;100.00;63675.41;5112154;28;20534;-61
2021/06/22 02:13:01;;;;;;;2.75;2.55;;;17.70;99.90;;;-141.85;100.00;63675.41;5112580;28;20199;-61
2021/06/22 02:15:30;;;;;;;2.63;2.42;;;17.70;99.90;;;-141.85;100.00;63675.41;5112194;28;20300;-62
2021/06/22 02:17:58;;;;;;;2.72;2.20;;;17.60;99.90;;;-141.85;100.00;63675.41;5112133;28;20264;-61
2021/06/22 02:20:27;;;;;;;2.25;2.05;;;17.60;99.90;;;-141.85;100.00;63675.41;5111969;28;20290;-62
2021/06/22 02:22:55;;;;;;;3.70;2.00;;;17.60;99.90;;;-141.85;100.00;63675.41;5111827;28;20199;-62
2021/06/22 02:25:25;;;;;;;1.90;1.80;;;17.60;99.90;;;-141.85;100.00;63675.41;5111892;28;20602;-61
2021/06/22 02:28:02;;;;;;;2.13;1.80;;;17.70;99.90;;;-141.85;100.00;63675.41;5112376;28;20179;-62
2021/06/22 02:30:30;;;;;;;1.60;1.35;;;17.80;99.90;;;-141.85;100.00;63675.41;5112383;28;20190;-61
2021/06/22 02:32:58;;;;;;;1.27;1.20;;;17.80;99.90;;;-141.85;100.00;63675.41;5112161;28;20203;-61
2021/06/22 02:35:27;;;;;;;1.25;1.15;;;17.70;99.90;;;-141.85;100.00;63675.41;5111939;28;20290;-61
2021/06/22 02:37:55;;;;;;;2.38;1.42;;;17.80;99.90;;;-141.85;100.00;63675.41;5112076;28;20211;-62
2021/06/22 02:40:28;;;;;;;1.52;1.42;;;17.80;99.90;;;-141.85;100.00;63675.41;5112034;28;20286;-62
2021/06/22 02:42:57;;;;;;;1.65;1.38;;;17.80;99.90;;;-141.85;100.00;63675.41;5112255;28;20211;-62
2021/06/22 02:45:25;;;;;;;1.50;1.40;;;17.80;99.90;;;-141.85;100.00;63675.41;5112119;28;20242;-61
2021/06/22 02:47:55;;;;;;;1.20;1.10;;;17.70;99.90;;;-141.85;100.00;63675.41;5111858;28;20701;-61
2021/06/22 02:50:23;;;;;;;1.30;1.20;;;17.70;99.90;;;-141.85;100.00;63675.41;5112033;28;20196;-61
2021/06/22 02:52:51;;;;;;;1.60;1.50;;;17.70;99.90;;;-141.85;100.00;63675.41;5111582;28;20720;-62
2021/06/22 02:55:20;;;;;;;2.17;1.40;;;17.60;99.90;;;-141.85;100.00;63675.41;5111957;28;20577;-61
2021/06/22 02:57:53;;;;;;;1.73;1.40;;;17.60;99.90;;;-141.85;100.00;63675.41;5112007;28;20562;-61
2021/06/22 03:00:26;;;;;;;1.50;1.40;;;17.50;99.90;;;-141.85;100.00;63675.41;5114506;28;20270;-61
2021/06/22 03:02:55;;;;;;;2.40;1.55;;;17.60;99.90;;;-141.85;100.00;63675.41;5115813;28;20267;-62
2021/06/22 03:05:24;;;;;;;1.52;1.42;;;17.60;99.90;;;-141.85;100.00;63675.41;5115668;28;20219;-62
2021/06/22 03:07:53;;;;;;;2.30;1.65;;;17.50;99.90;;;-141.85;100.00;63675.41;5115593;28;20290;-62
2021/06/22 03:10:23;;;;;;;1.48;1.38;;;17.40;99.90;;;-141.85;100.00;63675.41;5115783;28;20192;-61
2021/06/22 03:12:53;;;;;;;1.67;1.58;;;17.30;99.90;;;-141.85;100.00;63675.41;5115925;28;20278;-61
2021/06/22 03:15:22;;;;;;;1.60;1.40;;;17.40;99.90;;;-141.85;100.00;63675.41;5115592;28;20199;-62
2021/06/22 03:17:51;;;;;;;2.85;1.52;;;17.50;99.90;;;-141.85;100.00;63675.41;5115735;28;20231;-61
2021/06/22 03:20:20;;;;;;;1.80;1.70;;;17.60;99.90;;;-141.85;100.00;63675.41;5115382;28;20698;-61
2021/06/22 03:22:49;;;;;;;1.60;1.50;;;17.60;99.90;;;-141.85;100.00;63675.41;5115330;28;20246;-61
2021/06/22 03:25:17;;;;;;;1.65;1.45;;;17.60;99.90;;;-141.85;100.00;63675.41;5115117;28;20199;-63
2021/06/22 03:27:45;;;;;;;1.83;1.73;;;17.60;99.90;;;-141.85;100.00;63675.41;5115283;28;20226;-61
2021/06/22 03:30:16;;;;;;;1.52;1.42;;;17.70;99.90;;;-141.85;100.00;63675.41;5115466;28;20195;-62
2021/06/22 03:32:46;;;;;;;1.70;1.60;;;17.70;99.90;;;-141.85;100.00;63675.41;5115255;28;20674;-62
2021/06/22 03:35:16;;;;;;;1.65;1.55;;;17.70;99.90;;;-141.85;100.00;63675.41;5115494;28;20290;-61
2021/06/22 03:37:44;;;;;;;1.50;1.40;;;17.70;99.90;;;-141.85;100.00;63675.41;5115161;28;20659;-62
2021/06/22 03:40:13;;;;;;;1.80;1.70;;;17.70;99.90;;;-141.85;100.00;63675.41;5115682;28;20205;-62
2021/06/22 03:42:41;;;;;;;1.50;1.40;;;17.70;99.90;;;-141.85;100.00;63675.41;5115285;28;20196;-62
2021/06/22 03:45:10;;;;;;;1.73;1.60;;;17.70;99.90;;;-141.85;100.00;63675.41;5115191;28;20226;-62
2021/06/22 03:47:41;;;;;;;1.80;1.65;;;17.70;99.90;;;-141.85;100.00;63675.41;5114947;28;20218;-61
2021/06/22 03:50:12;;;;;;;1.85;1.75;;;17.70;99.90;;;-141.85;100.00;63675.41;5114769;28;20591;-62
2021/06/22 03:52:40;;;;;;;1.83;1.73;;;17.70;99.90;;;-141.85;100.00;63675.41;5114386;28;20228;-61
2021/06/22 03:57:53;;;;;;;2.33;2.13;;;17.60;99.90;;;-141.85;100.00;63675.41;5114457;28;20199;-62
2021/06/22 04:00:22;;;;;;;2.08;1.98;;;17.60;99.90;;;-141.85;100.00;63675.41;5114585;28;20203;-63
2021/06/22 04:02:52;;;;;;;2.88;1.63;;;17.50;99.90;;;-141.85;100.00;63675.41;5114215;28;20199;-61
2021/06/22 04:05:21;;;;;;;2.10;2.00;;;17.40;99.90;;;-141.85;100.00;63675.41;5114140;28;20282;-63
2021/06/22 04:07:49;;;;;;;2.05;1.95;;;17.60;99.90;;;-141.85;100.00;63675.41;5114182;28;20234;-62
2021/06/22 04:10:18;;;;;;;2.10;1.90;;;17.60;99.90;;;-141.85;100.00;63675.41;5114346;28;20196;-61
2021/06/22 04:12:46;;;;;;;2.55;2.15;;;17.60;99.90;;;-141.85;100.00;63675.41;5113618;28;20199;-62
2021/06/22 04:15:15;;;;;;;2.17;1.98;;;17.60;99.90;;;-141.85;100.00;63675.41;5114568;28;20199;-62
2021/06/22 04:17:43;;;;;;;2.28;2.00;;;17.70;99.90;;;-141.85;100.00;63675.41;5114382;28;20619;-62
2021/06/22 04:20:14;;;;;;;2.78;1.85;;;17.70;99.90;;;-141.85;100.00;63675.41;5114435;28;20187;-62
2021/06/22 04:22:42;;;;;;;2.78;2.00;;;17.80;99.90;;;-141.85;100.00;63675.41;5114440;28;20772;-62
2021/06/22 04:25:12;;;;;;;2.30;2.10;;;17.80;99.90;;;-141.85;100.00;63675.41;5114326;28;20241;-62
2021/06/22 04:27:40;;;;;;;2.65;2.33;;;17.80;99.90;;;-141.85;100.00;63675.41;5114288;28;20227;-62
2021/06/22 04:30:10;;;;;;;3.13;2.25;;;17.90;99.90;;;-141.85;100.00;63675.41;5114913;28;20300;-62
2021/06/22 04:32:38;;;;;;;3.05;2.85;;;17.80;99.90;;;-141.85;100.00;63675.41;5114719;28;20294;-61
2021/06/22 04:35:07;;;;;;;2.83;2.63;;;17.70;99.90;;;-141.85;100.00;63675.41;5114486;28;20766;-62
2021/06/22 04:37:37;;;;;;;4.47;2.90;;;17.70;99.90;;;-141.85;100.00;63675.41;5114820;28;20233;-62
2021/06/22 04:40:06;;;;;;;3.05;2.80;;;17.70;99.90;;;-141.85;100.00;63675.41;5114782;28;20294;-62
2021/06/22 04:42:34;;;;;;;3.85;3.40;;;17.50;99.90;;;-141.85;100.00;63675.41;5114566;28;20291;-62
2021/06/22 04:45:03;;;;;;;3.75;3.17;;;17.50;99.90;;;-141.85;100.00;63675.41;5114333;28;20191;-61
2021/06/22 04:47:31;;;;;;;2.78;2.55;;;17.50;99.90;;;-141.85;100.00;63675.41;5114530;28;20226;-63
2021/06/22 04:49:59;;;;;;;3.10;2.78;;;17.60;99.90;;;-141.85;100.00;63675.41;5114344;28;20211;-62
2021/06/22 04:52:27;;;;;;;3.83;2.90;;;17.60;99.90;;;-141.85;100.00;63675.41;5114016;28;20251;-62
2021/06/22 04:54:57;;;;;;;2.80;2.60;;;17.60;99.90;;;-141.85;100.00;63675.41;5113973;28;20312;-62
2021/06/22 04:57:25;;;;;;;3.88;3.47;;;17.50;99.90;;;-141.85;100.00;63675.41;5114230;28;20199;-61
2021/06/22 04:59:54;;;;;;;3.35;3.00;;;17.50;99.90;;;-141.85;100.00;63675.41;5114333;28;20199;-62
2021/06/22 05:02:22;;;;;;;4.18;3.05;;;17.50;99.90;;;-141.85;100.00;63675.41;5114275;28;20269;-62
2021/06/22 05:04:51;;;;;;;3.25;2.90;;;17.50;99.90;;;-141.85;100.00;63675.41;5114200;28;20283;-62
2021/06/22 05:07:19;;;;;;;5.82;3.70;;;17.60;99.90;;;-141.85;100.00;63675.41;5114149;28;20653;-62
2021/06/22 05:09:47;;;;;;;5.30;4.10;;;17.60;99.90;;;-141.85;100.00;63675.41;5113586;28;20730;-63
2021/06/22 05:12:17;;;;;;;4.72;4.03;;;17.50;99.90;;;-141.85;100.00;63675.41;5114096;28;20294;-62
2021/06/22 05:14:45;;;;;;;5.53;4.40;;;17.60;99.90;;;-141.85;100.00;63675.41;5114005;28;20202;-62
2021/06/22 05:17:12;;;;;;;4.43;4.03;;;17.60;99.90;;;-141.85;100.00;63675.41;5113639;28;20750;-63
2021/06/22 05:19:41;;;;;;;5.18;4.15;;;17.60;99.90;;;-141.85;100.00;63675.41;5113959;28;20206;-63
2021/06/22 05:22:09;;;;;;;4.85;4.10;;;17.50;99.90;;;-141.85;100.00;63675.41;5113471;28;20203;-62
2021/06/22 05:24:37;;;;;;;4.30;3.90;;;17.60;99.90;;;-141.85;100.00;63675.41;5113556;28;20200;-62
2021/06/22 05:27:06;;;;;;;4.95;4.03;;;17.50;99.90;;;-141.85;100.00;63675.41;5113410;28;20251;-62
2021/06/22 05:29:36;;;;;;;3.92;3.53;;;17.40;99.90;;;-141.85;100.00;63675.41;5113395;28;20553;-63
2021/06/22 05:32:04;;;;;;;4.13;3.72;;;17.30;99.90;;;-141.85;100.00;63675.41;5113957;28;20298;-62
2021/06/22 05:34:33;;;;;;;4.32;3.92;;;17.40;99.90;;;-141.85;100.00;63675.41;5113191;28;20213;-63
2021/06/22 05:37:01;;;;;;;4.10;3.80;;;17.40;99.90;;;-141.85;100.00;63675.41;5113566;28;20195;-63
2021/06/22 05:39:29;;;;;;;4.80;4.38;;;17.50;99.90;;;-141.85;100.00;63675.41;5113242;28;20207;-62
2021/06/22 05:41:57;;;;;;;4.45;4.05;;;17.50;99.90;;;-141.85;100.00;63675.41;5112829;28;20663;-62
2021/06/22 05:44:26;;;;;;;3.92;3.63;;;17.50;99.90;;;-141.85;100.00;63675.41;5112535;28;20203;-64
2021/06/22 05:46:55;;;;;;;7.28;4.93;;;17.60;99.90;;;-141.85;100.00;63675.41;5112800;28;20219;-63
2021/06/22 05:49:23;;;;;;;4.88;4.47;;;17.80;99.90;;;-141.85;100.00;63675.41;5112850;28;20674;-62
2021/06/22 05:51:52;;;;;;;5.57;4.82;;;17.80;99.90;;;-141.85;100.00;63675.41;5112988;28;20223;-64
2021/06/22 05:54:20;;;;;;;6.22;4.70;;;17.80;99.90;;;-141.85;100.00;63675.41;5113241;28;20213;-63
2021/06/22 05:56:48;;;;;;;6.20;4.78;;;17.80;99.90;;;-141.85;100.00;63675.41;5112894;28;20195;-63
2021/06/22 05:59:16;;;;;;;5.22;3.70;;;17.80;99.90;;;-141.85;100.00;63675.41;5113060;28;20205;-63
2021/06/22 06:01:44;;;;;;;7.22;4.68;;;17.90;99.90;;;-141.85;100.00;63675.41;5112852;28;20207;-64
2021/06/22 06:04:13;;;;;;;4.80;4.40;;;17.80;99.90;;;-141.85;100.00;63675.41;5112676;28;20736;-64
2021/06/22 06:06:41;;;;;;;4.38;3.97;;;17.80;99.90;;;-141.85;100.00;63675.41;5113062;28;20203;-64
2021/06/22 06:09:09;;;;;;;7.68;4.50;;;17.70;99.90;;;-141.85;100.00;63675.41;5113085;28;20192;-63
2021/06/22 06:11:37;;;;;;;7.32;4.13;;;17.60;99.90;;;-141.85;100.00;63675.41;5112794;28;20231;-64
2021/06/22 06:14:05;;;;;;;5.82;4.10;;;17.70;99.90;;;-141.85;100.00;63675.41;5112121;28;20210;-62
2021/06/22 06:16:33;;;;;;;5.18;4.38;;;17.80;99.90;;;-141.85;100.00;63675.41;5109631;28;20206;-62
2021/06/22 06:19:01;;;;;;;4.10;3.80;;;17.80;99.90;;;-141.85;100.00;63675.41;5110073;28;20283;-60
2021/06/22 06:21:38;;;;;;;4.47;4.07;;;17.80;99.90;;;-141.85;100.00;63675.41;5109927;28;20183;-60
2021/06/22 06:24:08;;;;;;;6.03;4.05;;;17.80;99.90;;;-141.85;100.00;63675.41;5109923;28;20266;-61
2021/06/22 06:26:43;;;;;;;4.68;4.28;;;17.70;99.90;;;-141.85;100.00;63675.41;5109750;28;20195;-61
2021/06/22 06:29:14;;;;;;;4.38;3.97;;;17.80;99.90;;;-141.85;100.00;63675.41;5109696;28;20722;-67
2021/06/22 06:31:42;;;;;;;4.35;3.95;;;17.80;99.90;;;-141.85;100.00;63675.41;5110843;28;20281;-66
2021/06/22 06:34:14;;;;;;;4.30;3.90;;;17.80;99.90;;;-141.85;100.00;63675.41;5113124;28;20631;-65
2021/06/22 06:36:43;;;;;;;4.22;3.83;;;18.00;99.90;;;-141.85;100.00;63675.41;5116995;28;20619;-66
2021/06/22 06:39:11;;;;;;;3.92;3.63;;;18.00;99.90;;;-141.85;100.00;63675.41;5116631;28;20207;-66
2021/06/22 06:41:39;;;;;;;4.32;3.92;;;18.00;99.90;;;-141.85;100.00;63675.41;5116742;28;20221;-66
2021/06/22 06:44:07;;;;;;;4.30;3.90;;;18.00;99.90;;;-141.85;100.00;63675.41;5116730;28;20294;-66
2021/06/22 06:46:35;;;;;;;4.15;3.78;;;18.10;99.90;;;-141.85;100.00;63675.41;5116722;28;20314;-67
2021/06/22 06:49:03;;;;;;;4.10;3.80;;;18.30;99.90;;;-141.85;100.00;63675.41;5116173;28;20230;-66
2021/06/22 06:51:31;;;;;;;3.67;3.38;;;18.50;99.90;;;-141.85;100.00;63675.41;5115523;28;20227;-66
2021/06/22 06:54:01;;;;;;;3.88;3.58;;;18.60;99.90;;;-141.85;100.00;63675.41;5115983;28;20202;-65
2021/06/22 06:56:29;;;;;;;3.60;3.30;;;18.70;99.90;;;-141.85;100.00;63675.41;5115868;28;20206;-66
2021/06/22 06:59:01;;;;;;;4.00;2.92;;;18.90;99.90;;;-141.85;100.00;63675.41;5115906;28;20190;-66
2021/06/22 07:01:29;;;;;;;2.97;2.78;;;19.10;99.90;;;-141.85;100.00;63675.41;5115804;28;20204;-65
2021/06/22 07:03:58;;;;;;;2.85;2.65;;;19.20;99.90;;;-141.85;100.00;63675.41;5115684;28;20214;-67
2021/06/22 07:06:26;;;;;;;2.80;2.60;;;19.30;99.90;;;-141.85;100.00;63675.41;5115634;28;20202;-66
2021/06/22 07:08:54;;;;;;;2.70;2.50;;;19.20;99.90;;;-141.85;100.00;63675.41;5115175;28;20318;-66
2021/06/22 07:11:26;;;;;;;3.08;2.22;;;19.10;99.90;;;-141.85;100.00;63675.41;5115617;28;20184;-66
2021/06/22 07:13:54;;;;;;;2.33;2.22;;;19.00;99.90;;;-141.85;100.00;63675.41;5115655;28;20226;-66
2021/06/22 07:16:22;;;;;;;2.50;2.30;;;18.90;99.90;;;-141.85;100.00;63675.41;5115675;28;20195;-66
2021/06/22 07:18:50;;;;;;;3.25;2.65;;;18.80;99.90;;;-141.85;100.00;63675.41;5115501;28;20199;-65
2021/06/22 07:21:19;;;;;;;2.90;2.70;;;18.80;99.90;;;-141.85;100.00;63675.41;5115537;28;20199;-66
2021/06/22 07:23:47;;;;;;;2.60;2.42;;;18.60;99.90;;;-141.85;100.00;63675.41;5115141;28;20655;-66
2021/06/22 07:26:35;;;;;;;2.80;2.60;;;18.50;99.90;;;-141.85;100.00;63675.41;5115370;28;20179;-66
2021/06/22 07:29:03;;;;;;;3.63;3.33;;;18.50;99.90;;;-141.85;100.00;63675.41;5115056;28;20598;-66
2021/06/22 07:31:32;;;;;;;4.00;3.70;;;18.50;99.90;;;-141.85;100.00;63675.41;5115917;28;20294;-67
2021/06/22 07:34:00;;;;;;;5.32;4.93;;;18.50;99.90;;;-141.85;100.00;63675.41;5116191;28;20275;-65
2021/06/22 07:36:28;;;;;;;6.40;5.22;;;18.40;99.90;;;-141.85;100.00;63675.41;5116110;28;20201;-65
2021/06/22 07:38:56;;;;;;;6.72;6.22;;;18.40;99.90;;;-141.85;100.00;63675.41;5124362;27;20237;-64
2021/06/22 07:41:24;;;;;;;7.57;6.95;;;18.40;99.90;;;-141.85;100.00;63675.41;5135412;27;20208;-64
2021/06/22 07:43:54;;;;;;;6.60;6.10;;;18.50;99.90;;;-141.85;100.00;63675.41;5135723;27;20282;-65
2021/06/22 07:46:22;;;;;;;6.28;5.78;;;18.50;99.90;;;-141.85;100.00;63675.41;5132566;27;20286;-61
2021/06/22 07:48:50;;;;;;;5.45;4.95;;;18.70;99.90;;;-141.85;100.00;63675.41;5115199;28;20219;-61
2021/06/22 07:51:18;;;;;;;5.43;4.93;;;18.90;99.90;;;-141.85;100.00;63675.41;5113955;28;20298;-66
2021/06/22 07:53:47;;;;;;;4.97;4.40;;;19.20;99.90;;;-141.85;100.00;63675.41;5112125;28;20188;-64
2021/06/22 07:56:15;;;;;;;4.38;4.07;;;19.20;99.90;;;-141.85;100.00;63675.41;5112051;28;20303;-65
2021/06/22 07:58:43;;;;;;;4.40;4.00;;;19.20;99.90;;;-141.85;100.00;63675.41;5111928;28;20207;-65
2021/06/22 08:01:13;;;;;;;4.30;4.00;;;19.30;99.90;;;-141.85;100.00;63675.41;5111831;28;20302;-64
2021/06/22 08:03:41;;;;;;;4.25;3.95;;;19.10;99.90;;;-141.85;100.00;63675.41;5111681;28;20213;-65
2021/06/22 08:06:09;;;;;;;3.80;3.50;;;19.00;99.90;;;-141.85;100.00;63675.41;5111588;28;20241;-65
2021/06/22 08:08:37;;;;;;;3.15;2.90;;;19.20;99.90;;;-141.85;100.00;63675.41;5111677;28;20302;-65
2021/06/22 08:11:05;;;;;;;3.60;3.30;;;19.20;99.90;;;-141.85;100.00;63675.41;5111612;28;20230;-66
2021/06/22 08:13:33;;;;;;;3.72;3.42;;;19.00;99.90;;;-141.85;100.00;63675.41;5111998;28;20203;-66
2021/06/22 08:16:02;;;;;;;3.47;3.20;;;19.00;99.90;;;-141.85;100.00;63675.41;5112050;28;20207;-66
2021/06/22 08:18:32;;;;;;;3.40;3.10;;;18.90;99.90;;;-141.85;100.00;63675.41;5111992;28;20639;-67
2021/06/22 08:21:01;;;;;;;3.58;3.28;;;18.90;99.90;;;-141.85;100.00;63675.41;5111940;28;20294;-60
2021/06/22 08:23:29;;;;;;;4.20;3.60;;;18.90;99.90;;;-141.85;100.00;63675.41;5111635;28;20742;-60
2021/06/22 08:26:03;;;;;;;5.15;4.53;;;18.90;99.90;;;-141.85;100.00;63675.41;5111505;28;20194;-60
2021/06/22 08:28:31;;;;;;;6.05;5.40;;;18.90;99.90;;;-141.85;100.00;63675.41;5111194;28;20318;-64
2021/06/22 08:30:59;;;;;;;4.15;3.75;;;18.70;99.90;;;-141.85;100.00;63675.41;5111799;28;20199;-62
2021/06/22 08:33:27;;;;;;;5.00;4.47;;;18.50;99.90;;;-141.85;100.00;63675.41;5111580;28;20254;-66
2021/06/22 08:35:56;;;;;;;5.07;4.60;;;18.30;99.90;;;-141.85;100.00;63675.41;5111526;28;20291;-64
2021/06/22 08:38:24;;;;;;;7.43;5.80;;;18.20;99.90;;;-141.85;100.00;63675.41;5111047;28;20195;-63
2021/06/22 08:40:52;;;;;;;6.95;5.72;;;18.30;99.90;;;-141.85;100.00;63675.41;5111348;28;20636;-63
2021/06/22 08:43:20;;;;;;;6.32;4.75;;;18.30;99.90;;;-141.85;100.00;63675.41;5111001;28;20204;-62
2021/06/22 08:45:49;;;;;;;3.85;3.50;;;18.40;99.90;;;-141.85;100.00;63675.41;5111007;28;20256;-62
2021/06/22 08:48:17;;;;;;;3.83;3.50;;;18.50;99.90;;;-141.85;100.00;63675.41;5110607;28;20259;-64
2021/06/22 08:50:47;;;;;;;5.30;4.80;;;18.60;99.90;;;-141.85;100.00;63675.41;5110804;28;20199;-62
2021/06/22 08:53:16;;;;;;;5.35;4.85;;;18.70;99.90;;;-141.85;100.00;63675.41;5110422;28;20296;-67
2021/06/22 08:55:46;;;;;;;5.35;4.85;;;18.60;99.90;;;-141.85;100.00;63675.41;5107715;28;20205;-68
2021/06/22 08:58:17;;;;;;;7.78;5.88;;;18.50;99.90;;;-141.85;100.00;63675.41;5109977;28;20207;-68
2021/06/22 09:00:48;;;;;;;6.82;6.22;;;18.50;99.90;;;-141.85;100.00;63675.41;5111050;28;20188;-68
2021/06/22 09:03:22;;;;;;;6.90;6.30;;;18.70;99.90;;;-141.85;100.00;63675.41;5111183;28;20210;-68
2021/06/22 09:05:54;;;;;;;7.22;6.63;;;18.90;99.90;;;-141.85;100.00;63675.41;5111099;28;20608;-68
2021/06/22 09:08:25;;;;;;;6.10;5.60;;;18.90;99.90;;;-141.85;100.00;63675.41;5110647;28;20211;-62
2021/06/22 09:11:04;;;;;;;6.10;5.60;;;19.10;99.90;;;-141.85;100.00;63675.41;5110734;28;20251;-62
2021/06/22 09:13:32;;;;;;;5.18;4.78;;;19.30;99.90;;;-141.85;100.00;63675.41;5110544;28;20194;-63
2021/06/22 09:16:01;;;;;;;5.05;4.65;;;19.60;99.90;;;-141.85;100.00;63675.41;5110768;28;20213;-63
2021/06/22 09:18:33;;;;;;;5.07;4.68;;;19.70;99.90;;;-141.85;100.00;63675.41;5110594;28;20682;-63
2021/06/22 09:21:04;;;;;;;6.05;5.47;;;19.80;99.90;;;-141.85;100.00;63675.41;5110670;28;20183;-65
2021/06/22 09:23:38;;;;;;;5.50;5.00;;;19.80;99.90;;;-141.85;100.00;63675.41;5110280;28;20187;-65
2021/06/22 09:26:11;;;;;;;4.75;4.38;;;19.70;99.90;;;-141.85;100.00;63675.41;5109879;28;20283;-70
2021/06/22 09:28:40;;;;;;;4.80;4.40;;;19.90;99.90;;;-141.85;100.00;63675.41;5110125;28;20648;-68
2021/06/22 09:31:11;;;;;;;5.45;4.80;;;20.00;99.90;;;-141.85;100.00;63675.41;5110236;28;20234;-69
2021/06/22 09:33:41;;;;;;;5.25;4.85;;;20.20;99.90;;;-141.85;100.00;63675.41;5110325;28;20188;-63
2021/06/22 09:36:14;;;;;;;5.80;4.80;;;20.50;99.90;;;-141.85;100.00;63675.41;5110290;28;20186;-64
2021/06/22 09:38:50;;;;;;;5.18;4.68;;;20.40;99.90;;;-141.85;100.00;63675.41;5110275;28;20283;-60
2021/06/22 09:41:25;;;;;;;5.20;4.80;;;20.30;99.90;;;-141.85;100.00;63675.41;5110380;28;20183;-60
2021/06/22 09:44:02;;;;;;;5.07;4.68;;;20.30;99.90;;;-141.85;100.00;63675.41;5110310;28;20237;-66
2021/06/22 09:46:40;;;;;;;4.50;4.20;;;20.30;99.90;;;-141.85;100.00;63675.41;5110241;28;20287;-66
2021/06/22 09:49:11;;;;;;;4.93;4.53;;;20.40;99.90;;;-141.85;100.00;63675.41;5110042;28;20215;-61
2021/06/22 09:51:51;;;;;;;4.70;4.28;;;20.60;99.90;;;-141.85;100.00;63675.41;5109629;28;20230;-63
2021/06/22 09:54:22;;;;;;;4.53;4.13;;;20.70;99.90;;;-141.85;100.00;63675.41;5110113;28;20270;-63
2021/06/22 09:56:59;;;;;;;5.10;4.60;;;20.70;99.90;;;-141.85;100.00;63675.41;5109619;28;20624;-62
2021/06/22 09:59:29;;;;;;;5.00;4.60;;;20.80;99.90;;;-141.85;100.00;63675.41;5109598;28;20275;-62
2021/06/22 10:02:10;;;;;;;4.60;4.20;;;20.50;99.90;;;-141.85;100.00;63675.41;5110534;28;20223;-63
2021/06/22 10:04:42;;;;;;;4.50;4.10;;;20.60;99.90;;;-141.85;100.00;63675.41;5109941;28;20274;-63
2021/06/22 10:07:14;;;;;;;4.80;4.30;;;20.90;99.90;;;-141.85;100.00;63675.41;5110155;28;20179;-62
2021/06/22 10:09:44;;;;;;;5.15;4.75;;;21.10;99.90;;;-141.85;100.00;63675.41;5109184;28;20249;-62
2021/06/22 10:12:14;;;;;;;5.00;4.60;;;21.30;99.90;;;-141.85;100.00;63675.41;5109697;28;20274;-63